Time;durP1;ratioP1;P1;durP2;ratioP2;P2;SDS_P1;SDS_P2;PMS_P1;PMS_P2;Temp;Humidity;BMP_temperature;BMP_pressure;BME280_temperature;BME280_humidity;BME280_pressure;Samples;Min_cycle;Max_cycle;Signal;HPM_P1;HPM_P2
2021/07/30 00:01:37;;;;;;;9.52;5.68;;;13.00;94.40;;;;;;5030879;28;20022;-68
2021/07/30 00:04:03;;;;;;;10.50;6.45;;;13.00;94.40;;;;;;5032713;28;20041;-68
2021/07/30 00:06:29;;;;;;;8.68;5.75;;;13.00;94.40;;;;;;5030541;28;20099;-68
2021/07/30 00:08:54;;;;;;;12.40;6.07;;;13.00;94.50;;;;;;5032080;28;20419;-67
2021/07/30 00:11:20;;;;;;;14.00;6.28;;;13.00;94.50;;;;;;5032529;28;20038;-68
2021/07/30 00:13:46;;;;;;;12.35;6.80;;;12.90;94.60;;;;;;5032622;28;20035;-69
2021/07/30 00:16:11;;;;;;;11.30;6.78;;;12.90;94.70;;;;;;5030935;28;20037;-69
2021/07/30 00:18:36;;;;;;;9.60;6.30;;;12.90;94.80;;;;;;5033034;28;20026;-69
2021/07/30 00:21:04;;;;;;;12.45;6.93;;;12.80;94.80;;;;;;5029306;28;20480;-69
2021/07/30 00:23:29;;;;;;;13.48;6.65;;;12.80;94.80;;;;;;5032126;28;20060;-69
2021/07/30 00:25:55;;;;;;;14.88;7.63;;;12.70;94.90;;;;;;5031437;28;20506;-69
2021/07/30 00:28:21;;;;;;;11.20;7.78;;;12.70;95.00;;;;;;5031742;28;20057;-69
2021/07/30 00:30:46;;;;;;;10.60;6.63;;;12.70;95.10;;;;;;5032066;28;20059;-69
2021/07/30 00:33:12;;;;;;;14.07;6.68;;;12.70;95.10;;;;;;5027994;28;20018;-69
2021/07/30 00:35:37;;;;;;;11.80;7.05;;;12.60;95.10;;;;;;5025434;28;20044;-69
2021/07/30 00:38:03;;;;;;;12.10;6.78;;;12.60;95.10;;;;;;5029585;28;20041;-69
2021/07/30 00:40:28;;;;;;;11.95;6.15;;;12.60;95.40;;;;;;5031960;28;20029;-68
2021/07/30 00:42:54;;;;;;;11.32;6.00;;;12.60;95.10;;;;;;5023940;28;20036;-68
2021/07/30 00:45:20;;;;;;;12.07;6.35;;;12.60;95.10;;;;;;5030770;28;20048;-69
2021/07/30 00:47:47;;;;;;;12.07;6.70;;;12.60;95.10;;;;;;5031717;28;20029;-69
2021/07/30 00:50:13;;;;;;;13.70;6.95;;;12.60;95.00;;;;;;5028449;28;20113;-69
2021/07/30 00:52:40;;;;;;;10.82;6.53;;;12.60;95.00;;;;;;5032117;28;20116;-69
2021/07/30 00:55:07;;;;;;;10.52;5.35;;;12.60;95.00;;;;;;5031340;28;20029;-68
2021/07/30 00:57:33;;;;;;;9.57;6.13;;;12.60;95.00;;;;;;5029872;28;20109;-69
2021/07/30 00:59:59;;;;;;;14.63;7.25;;;12.60;95.00;;;;;;5026104;28;20532;-69
2021/07/30 01:02:25;;;;;;;12.98;6.18;;;12.60;95.00;;;;;;5028338;28;20026;-69
2021/07/30 01:04:51;;;;;;;13.40;6.60;;;12.50;95.10;;;;;;5029975;28;20059;-68
2021/07/30 01:07:16;;;;;;;13.38;6.78;;;12.50;95.10;;;;;;5031655;28;20068;-68
2021/07/30 01:09:42;;;;;;;11.93;6.55;;;12.50;95.20;;;;;;5030068;28;20037;-68
2021/07/30 01:12:09;;;;;;;12.73;6.55;;;12.50;95.20;;;;;;5018723;28;20044;-68
2021/07/30 01:14:34;;;;;;;12.57;6.75;;;12.50;95.20;;;;;;5031248;28;20048;-68
2021/07/30 01:17:00;;;;;;;13.25;6.97;;;12.50;95.20;;;;;;5029397;28;20053;-69
2021/07/30 01:19:26;;;;;;;11.95;6.68;;;12.50;95.30;;;;;;5030578;28;20068;-69
2021/07/30 01:21:53;;;;;;;13.43;6.25;;;12.50;95.30;;;;;;5026740;28;20028;-69
2021/07/30 01:24:19;;;;;;;9.05;6.35;;;12.50;95.50;;;;;;5032632;28;20115;-69
2021/07/30 01:26:46;;;;;;;15.13;7.07;;;12.40;95.40;;;;;;5022749;28;20026;-69
2021/07/30 01:29:11;;;;;;;11.23;6.78;;;12.40;95.40;;;;;;5030834;28;20032;-69
2021/07/30 01:31:37;;;;;;;14.30;7.60;;;12.40;95.40;;;;;;5031190;28;20119;-68
2021/07/30 01:34:03;;;;;;;11.05;6.10;;;12.50;95.50;;;;;;5030920;28;20025;-68
2021/07/30 01:36:28;;;;;;;13.93;7.03;;;12.40;95.40;;;;;;5027658;28;20033;-69
2021/07/30 01:38:54;;;;;;;11.95;5.85;;;12.50;95.50;;;;;;5028368;28;20022;-69
2021/07/30 01:41:19;;;;;;;11.23;6.20;;;12.40;95.40;;;;;;5029980;28;20045;-68
2021/07/30 01:43:45;;;;;;;11.98;6.90;;;12.50;95.50;;;;;;5031422;28;20119;-69
2021/07/30 01:46:11;;;;;;;12.25;6.70;;;12.40;95.50;;;;;;5026812;28;20073;-69
2021/07/30 01:48:37;;;;;;;12.68;6.72;;;12.40;95.50;;;;;;5030211;28;20025;-69
2021/07/30 01:51:03;;;;;;;12.32;7.00;;;12.40;95.50;;;;;;5031161;28;20033;-69
2021/07/30 01:53:29;;;;;;;12.50;7.45;;;12.50;95.60;;;;;;5030281;28;20115;-69
2021/07/30 01:55:55;;;;;;;10.18;6.32;;;12.50;95.60;;;;;;5030930;28;20037;-69
2021/07/30 01:58:21;;;;;;;12.57;6.32;;;12.40;95.50;;;;;;5030853;28;20361;-69
2021/07/30 02:00:46;;;;;;;15.73;6.78;;;12.40;95.60;;;;;;5033629;28;20052;-69
2021/07/30 02:03:12;;;;;;;12.32;6.97;;;12.40;95.60;;;;;;5018666;28;20077;-69
2021/07/30 02:05:39;;;;;;;14.82;7.13;;;12.40;95.60;;;;;;5033627;28;20083;-69
2021/07/30 02:08:08;;;;;;;15.77;7.25;;;12.40;95.60;;;;;;5032927;28;20034;-69
2021/07/30 02:10:34;;;;;;;14.43;7.05;;;12.40;95.70;;;;;;5027140;28;20032;-69
2021/07/30 02:15:44;;;;;;;13.65;6.55;;;12.40;95.80;;;;;;5031660;28;20134;-69
2021/07/30 02:18:09;;;;;;;11.55;7.05;;;12.30;95.80;;;;;;5031793;28;20029;-69
2021/07/30 02:20:36;;;;;;;13.57;7.30;;;12.30;95.90;;;;;;5033957;28;20096;-69
2021/07/30 02:23:01;;;;;;;12.38;6.65;;;12.30;95.90;;;;;;5031700;28;20076;-69
2021/07/30 02:25:27;;;;;;;11.82;7.25;;;12.30;95.90;;;;;;5035191;28;20037;-69
2021/07/30 02:27:52;;;;;;;10.55;6.05;;;12.30;96.00;;;;;;5033986;28;20035;-69
2021/07/30 02:30:18;;;;;;;12.82;6.63;;;12.30;96.00;;;;;;5032584;28;20059;-69
2021/07/30 02:32:43;;;;;;;13.75;6.28;;;12.30;96.10;;;;;;5034799;28;20183;-69
2021/07/30 02:35:09;;;;;;;18.23;7.43;;;12.30;96.10;;;;;;5032626;28;20057;-69
2021/07/30 02:37:35;;;;;;;11.75;6.82;;;12.20;96.10;;;;;;5032980;28;20025;-69
2021/07/30 02:40:00;;;;;;;11.25;6.65;;;12.20;96.20;;;;;;5032220;28;20389;-69
2021/07/30 02:42:26;;;;;;;13.77;7.47;;;12.20;96.20;;;;;;5032875;28;20033;-69
2021/07/30 02:44:51;;;;;;;12.15;7.22;;;12.20;96.30;;;;;;5033655;28;20491;-69
2021/07/30 02:47:17;;;;;;;13.68;6.50;;;12.20;96.30;;;;;;5030089;28;20030;-69
2021/07/30 02:49:42;;;;;;;19.58;6.63;;;12.30;96.30;;;;;;5034551;28;20034;-69
2021/07/30 02:52:08;;;;;;;11.40;6.03;;;12.30;96.40;;;;;;5032000;28;20049;-69
2021/07/30 02:54:33;;;;;;;14.77;6.53;;;12.20;96.40;;;;;;5033690;28;20076;-69
2021/07/30 02:56:59;;;;;;;16.48;6.50;;;12.30;96.40;;;;;;5031419;28;20037;-69
2021/07/30 02:59:24;;;;;;;10.40;6.10;;;12.30;96.50;;;;;;5031630;28;20022;-69
2021/07/30 03:01:50;;;;;;;12.05;6.05;;;12.20;96.40;;;;;;5029496;28;20379;-69
2021/07/30 03:04:15;;;;;;;12.30;6.22;;;12.30;96.50;;;;;;5033903;28;20025;-69
2021/07/30 03:06:41;;;;;;;10.95;5.82;;;12.20;96.50;;;;;;5030966;28;20481;-69
2021/07/30 03:09:06;;;;;;;10.02;5.65;;;12.30;96.50;;;;;;5033907;28;20034;-68
2021/07/30 03:11:32;;;;;;;14.77;6.45;;;12.30;96.50;;;;;;5034109;28;20029;-69
2021/07/30 03:13:57;;;;;;;11.23;6.05;;;12.30;96.50;;;;;;5031068;28;20037;-68
2021/07/30 03:16:23;;;;;;;12.00;5.57;;;12.30;96.50;;;;;;5029081;28;20072;-69
2021/07/30 03:18:48;;;;;;;12.45;5.47;;;12.30;96.50;;;;;;5031790;28;20033;-69
2021/07/30 03:21:14;;;;;;;16.33;6.53;;;12.30;96.60;;;;;;5031511;28;20033;-69
2021/07/30 03:23:40;;;;;;;17.20;6.53;;;12.30;96.60;;;;;;5031262;28;20116;-69
2021/07/30 03:26:06;;;;;;;15.55;6.05;;;12.20;96.70;;;;;;5034154;28;20052;-69
2021/07/30 03:28:32;;;;;;;11.57;5.53;;;12.30;96.80;;;;;;5031488;28;20038;-69
2021/07/30 03:31:01;;;;;;;11.63;6.72;;;12.20;96.80;;;;;;5032714;28;20033;-69
2021/07/30 03:33:27;;;;;;;13.20;6.72;;;12.20;96.90;;;;;;5033495;28;20029;-69
2021/07/30 03:35:53;;;;;;;11.82;5.18;;;12.20;96.90;;;;;;5031296;28;20087;-68
2021/07/30 03:38:18;;;;;;;21.77;7.25;;;12.30;97.00;;;;;;5031788;28;20029;-69
2021/07/30 03:40:44;;;;;;;18.08;6.82;;;12.30;97.00;;;;;;5032402;28;20038;-69
2021/07/30 03:43:11;;;;;;;16.63;7.07;;;12.30;97.00;;;;;;5032073;28;20408;-70
2021/07/30 03:45:37;;;;;;;16.20;6.88;;;12.30;97.10;;;;;;5026205;28;20057;-69
2021/07/30 03:48:03;;;;;;;10.95;6.15;;;12.40;97.10;;;;;;5032586;28;20053;-68
2021/07/30 03:50:30;;;;;;;12.45;6.10;;;12.30;97.10;;;;;;5031740;28;20104;-69
2021/07/30 03:53:00;;;;;;;16.58;7.18;;;12.40;97.20;;;;;;5029360;28;20037;-66
2021/07/30 03:55:26;;;;;;;10.10;6.72;;;12.40;97.20;;;;;;5032512;28;20036;-69
2021/07/30 03:57:51;;;;;;;11.32;5.93;;;12.40;97.20;;;;;;5032144;28;20025;-69
2021/07/30 04:00:17;;;;;;;11.40;6.53;;;12.50;97.20;;;;;;5029052;28;20037;-68
2021/07/30 04:02:42;;;;;;;15.63;6.85;;;12.50;97.20;;;;;;5032913;28;20387;-69
2021/07/30 04:05:08;;;;;;;14.02;6.20;;;12.50;97.30;;;;;;5032847;28;20470;-68
2021/07/30 04:07:33;;;;;;;10.43;6.63;;;12.50;97.30;;;;;;5030852;28;20029;-69
2021/07/30 04:10:00;;;;;;;10.30;5.63;;;12.50;97.30;;;;;;5030380;28;20026;-69
2021/07/30 04:12:25;;;;;;;14.93;6.93;;;12.50;97.30;;;;;;5032805;28;20027;-69
2021/07/30 04:14:51;;;;;;;9.77;6.57;;;12.60;97.40;;;;;;5027330;28;20025;-69
2021/07/30 04:17:16;;;;;;;11.85;7.00;;;12.60;97.40;;;;;;5031233;28;20388;-68
2021/07/30 04:19:45;;;;;;;14.32;7.22;;;12.60;97.70;;;;;;5031067;28;20053;-68
2021/07/30 04:22:12;;;;;;;12.93;6.38;;;12.60;97.40;;;;;;5029480;28;20025;-68
2021/07/30 04:24:37;;;;;;;9.80;6.35;;;12.60;97.40;;;;;;5026130;28;20030;-69
2021/07/30 04:27:03;;;;;;;14.82;7.43;;;12.60;97.50;;;;;;5032323;28;20534;-69
2021/07/30 04:29:29;;;;;;;12.32;7.10;;;12.60;97.50;;;;;;5028255;28;20056;-69
2021/07/30 04:31:54;;;;;;;12.80;7.13;;;12.60;97.60;;;;;;5025248;28;20095;-69
2021/07/30 04:34:20;;;;;;;9.18;6.75;;;12.60;97.60;;;;;;5026247;28;20029;-69
2021/07/30 04:36:45;;;;;;;13.90;6.95;;;12.60;97.70;;;;;;5023624;28;20113;-69
2021/07/30 04:39:11;;;;;;;20.00;9.63;;;12.60;97.70;;;;;;5028692;28;20083;-68
2021/07/30 04:41:36;;;;;;;15.18;7.75;;;12.60;97.80;;;;;;5031987;28;20495;-69
2021/07/30 04:44:02;;;;;;;11.82;7.53;;;12.70;97.80;;;;;;5033012;28;20032;-68
2021/07/30 04:46:27;;;;;;;14.40;7.65;;;12.80;97.90;;;;;;5032068;28;20609;-68
2021/07/30 04:48:53;;;;;;;14.40;7.38;;;12.80;97.90;;;;;;5029188;28;20041;-69
2021/07/30 04:51:18;;;;;;;14.80;7.68;;;12.90;97.90;;;;;;5032740;28;20112;-69
2021/07/30 04:53:46;;;;;;;18.63;8.57;;;13.00;98.20;;;;;;5032565;28;20030;-69
2021/07/30 04:56:18;;;;;;;14.60;8.00;;;13.10;97.90;;;;;;5028879;28;20033;-69
2021/07/30 04:58:44;;;;;;;12.90;6.95;;;13.20;97.80;;;;;;5029215;28;20075;-69
2021/07/30 05:01:09;;;;;;;15.15;9.02;;;13.30;97.80;;;;;;5027706;28;20682;-69
2021/07/30 05:03:35;;;;;;;16.30;7.90;;;13.40;97.80;;;;;;5031132;28;20492;-68
2021/07/30 05:06:11;;;;;;;13.43;8.10;;;13.40;97.70;;;;;;5032447;28;20143;-67
2021/07/30 05:08:36;;;;;;;16.80;8.05;;;13.50;97.70;;;;;;5026376;28;20091;-67
2021/07/30 05:11:02;;;;;;;13.00;7.63;;;13.50;97.70;;;;;;5027325;28;20454;-69
2021/07/30 05:13:27;;;;;;;13.93;8.65;;;13.50;97.60;;;;;;5027346;28;20026;-70
2021/07/30 05:15:53;;;;;;;15.23;8.60;;;13.50;97.60;;;;;;5028620;28;20042;-68
2021/07/30 05:18:18;;;;;;;14.45;8.23;;;13.50;97.60;;;;;;5029457;28;20059;-68
2021/07/30 05:20:44;;;;;;;16.77;9.95;;;13.60;97.60;;;;;;5025979;28;20040;-68
2021/07/30 05:23:09;;;;;;;15.25;9.00;;;13.60;97.60;;;;;;5028053;28;20033;-68
2021/07/30 05:25:35;;;;;;;16.33;8.50;;;13.70;97.60;;;;;;5025871;28;20052;-69
2021/07/30 05:28:01;;;;;;;12.90;8.23;;;13.70;97.60;;;;;;5030079;28;20049;-70
2021/07/30 05:30:26;;;;;;;15.38;8.27;;;13.80;97.70;;;;;;5028401;28;20516;-69
2021/07/30 05:32:52;;;;;;;12.70;7.50;;;13.90;97.70;;;;;;5025064;28;20075;-69
2021/07/30 05:35:17;;;;;;;14.73;7.20;;;14.10;97.80;;;;;;5027235;28;20380;-68
2021/07/30 05:37:43;;;;;;;13.88;7.85;;;14.40;97.90;;;;;;5033558;28;20025;-68
2021/07/30 05:40:09;;;;;;;12.07;7.15;;;14.60;97.60;;;;;;5034407;28;20033;-68
2021/07/30 05:42:34;;;;;;;10.70;6.97;;;14.90;97.30;;;;;;5035169;28;20048;-69
2021/07/30 05:45:00;;;;;;;12.95;7.53;;;15.20;96.90;;;;;;5030224;28;20029;-68
2021/07/30 05:47:25;;;;;;;12.45;7.20;;;15.40;96.60;;;;;;5034302;28;20101;-68
2021/07/30 05:49:51;;;;;;;13.10;7.90;;;15.60;96.00;;;;;;5034256;28;20061;-68
2021/07/30 05:52:16;;;;;;;18.67;7.70;;;15.70;95.60;;;;;;5031845;28;20483;-68
2021/07/30 05:54:42;;;;;;;13.98;7.50;;;15.80;95.40;;;;;;5032425;28;20018;-69
2021/07/30 05:57:07;;;;;;;15.55;8.30;;;15.80;95.30;;;;;;5030095;28;20037;-69
2021/07/30 05:59:33;;;;;;;13.75;7.57;;;15.70;95.10;;;;;;5032875;28;20017;-69
2021/07/30 06:01:58;;;;;;;12.75;7.30;;;15.80;95.10;;;;;;5034984;28;20037;-69
2021/07/30 06:04:24;;;;;;;14.68;7.50;;;15.70;95.10;;;;;;5025260;28;20377;-69
2021/07/30 06:06:50;;;;;;;14.68;7.55;;;15.90;95.10;;;;;;5029827;28;20442;-70
2021/07/30 06:09:15;;;;;;;13.30;7.35;;;16.00;95.00;;;;;;5032820;28;20037;-70
2021/07/30 06:11:41;;;;;;;11.88;6.88;;;16.10;94.80;;;;;;5034938;28;20033;-67
2021/07/30 06:14:06;;;;;;;17.95;7.25;;;16.20;94.70;;;;;;5033943;28;20026;-69
2021/07/30 06:16:32;;;;;;;15.45;7.20;;;16.30;94.50;;;;;;5032267;28;20084;-70
2021/07/30 06:18:57;;;;;;;11.90;7.22;;;16.40;94.40;;;;;;5034525;28;20110;-70
2021/07/30 06:21:23;;;;;;;12.10;7.22;;;16.50;94.30;;;;;;5032386;28;20030;-67
2021/07/30 06:23:48;;;;;;;16.13;6.95;;;16.60;94.10;;;;;;5031528;28;20475;-70
2021/07/30 06:26:14;;;;;;;12.00;7.18;;;16.70;94.40;;;;;;5030391;28;20051;-70
2021/07/30 06:28:40;;;;;;;12.77;6.82;;;16.80;94.00;;;;;;5029672;28;20365;-70
2021/07/30 06:31:05;;;;;;;13.23;6.95;;;16.90;93.70;;;;;;5032378;28;20383;-69
2021/07/30 06:33:31;;;;;;;14.77;6.15;;;17.10;93.60;;;;;;5031561;28;20033;-68
2021/07/30 06:35:56;;;;;;;11.32;6.07;;;17.20;93.40;;;;;;5033358;28;20021;-69
2021/07/30 06:38:23;;;;;;;9.07;6.05;;;17.20;93.20;;;;;;5027742;28;20176;-69
2021/07/30 06:40:48;;;;;;;15.63;6.95;;;17.20;93.00;;;;;;5033681;28;20773;-69
2021/07/30 06:43:14;;;;;;;11.05;6.30;;;17.30;93.00;;;;;;5021484;28;20075;-69
2021/07/30 06:45:40;;;;;;;13.77;5.90;;;17.40;93.10;;;;;;5033150;28;20526;-69
2021/07/30 06:48:06;;;;;;;10.55;5.97;;;17.50;93.00;;;;;;5024785;28;20025;-68
2021/07/30 06:50:31;;;;;;;10.80;4.90;;;17.70;92.90;;;;;;5034888;28;20025;-69
2021/07/30 06:52:57;;;;;;;11.18;5.75;;;17.90;92.60;;;;;;5033903;28;20029;-69
2021/07/30 06:55:22;;;;;;;11.52;5.25;;;18.00;92.30;;;;;;5033403;28;20066;-68
2021/07/30 06:57:48;;;;;;;13.32;6.07;;;18.20;92.20;;;;;;5031676;28;20381;-69
2021/07/30 07:00:14;;;;;;;10.55;5.07;;;18.30;92.00;;;;;;5030172;28;20033;-68
2021/07/30 07:02:39;;;;;;;13.95;6.43;;;18.40;92.00;;;;;;5029689;28;20037;-68
2021/07/30 07:05:06;;;;;;;13.07;5.88;;;18.50;91.80;;;;;;5027020;28;20033;-69
2021/07/30 07:07:31;;;;;;;11.80;5.68;;;18.60;91.60;;;;;;5030972;28;20025;-68
2021/07/30 07:09:57;;;;;;;14.88;5.85;;;18.60;91.50;;;;;;5033783;28;20071;-68
2021/07/30 07:12:25;;;;;;;11.38;5.35;;;18.70;91.30;;;;;;5034055;28;20399;-69
2021/07/30 07:14:51;;;;;;;10.90;5.28;;;18.80;91.10;;;;;;5033307;28;20029;-68
2021/07/30 07:17:18;;;;;;;11.48;5.90;;;18.90;90.90;;;;;;5033776;28;20118;-68
2021/07/30 07:19:44;;;;;;;11.68;5.55;;;19.00;90.50;;;;;;5031795;28;20025;-68
2021/07/30 07:22:09;;;;;;;12.30;5.68;;;19.00;90.40;;;;;;5030787;28;20093;-68
2021/07/30 07:24:38;;;;;;;13.15;5.50;;;19.10;90.50;;;;;;5032739;28;20041;-69
2021/07/30 07:27:04;;;;;;;9.35;4.97;;;19.20;89.80;;;;;;5032695;28;20422;-68
2021/07/30 07:29:31;;;;;;;9.93;5.00;;;19.30;89.70;;;;;;5031335;28;20047;-69
2021/07/30 07:31:57;;;;;;;11.10;4.55;;;19.40;89.20;;;;;;5031324;28;20032;-71
2021/07/30 07:34:23;;;;;;;11.63;6.05;;;19.50;89.10;;;;;;5022350;28;20025;-69
2021/07/30 07:36:48;;;;;;;12.93;5.75;;;19.60;88.60;;;;;;5017549;28;20403;-70
2021/07/30 07:39:14;;;;;;;11.73;6.40;;;19.70;87.50;;;;;;5020209;28;20029;-69
2021/07/30 07:41:39;;;;;;;11.95;6.25;;;19.60;87.40;;;;;;5020724;28;20029;-69
2021/07/30 07:44:05;;;;;;;12.77;5.72;;;19.70;87.10;;;;;;5011238;28;20065;-70
2021/07/30 07:46:31;;;;;;;10.38;6.05;;;19.60;86.90;;;;;;5019992;28;20488;-70
2021/07/30 07:48:56;;;;;;;13.63;5.53;;;19.70;86.90;;;;;;5025938;28;20045;-69
2021/07/30 07:51:22;;;;;;;12.60;5.60;;;19.80;86.80;;;;;;5026378;28;20025;-70
2021/07/30 07:53:47;;;;;;;11.30;5.05;;;19.80;86.50;;;;;;5022435;28;20338;-68
2021/07/30 07:56:13;;;;;;;10.45;5.28;;;19.80;86.00;;;;;;5023785;28;20036;-68
2021/07/30 07:58:38;;;;;;;14.00;5.80;;;19.90;86.10;;;;;;5020922;28;20479;-68
2021/07/30 08:01:04;;;;;;;12.05;5.78;;;20.00;86.00;;;;;;5025400;28;20028;-67
2021/07/30 08:03:29;;;;;;;9.27;4.80;;;20.30;85.70;;;;;;5018755;28;20106;-67
2021/07/30 08:05:55;;;;;;;9.75;5.95;;;20.40;85.00;;;;;;5027641;28;20025;-67
2021/07/30 08:08:24;;;;;;;9.07;5.03;;;20.60;84.20;;;;;;5026396;28;20863;-69
2021/07/30 08:10:49;;;;;;;14.05;5.97;;;20.70;83.80;;;;;;5022495;28;20053;-70
2021/07/30 08:13:15;;;;;;;11.10;5.30;;;20.80;83.70;;;;;;5026337;28;20061;-69
2021/07/30 08:15:41;;;;;;;9.40;4.35;;;20.90;83.70;;;;;;5020217;28;20099;-69
2021/07/30 08:18:07;;;;;;;11.85;4.93;;;21.00;82.50;;;;;;5031268;28;20033;-69
2021/07/30 08:20:33;;;;;;;9.82;4.55;;;21.10;81.20;;;;;;5028429;28;20033;-69
2021/07/30 08:22:59;;;;;;;14.00;4.85;;;21.20;80.10;;;;;;5031886;28;20483;-68
2021/07/30 08:25:24;;;;;;;9.13;4.65;;;21.20;79.90;;;;;;5029208;28;20030;-68
2021/07/30 08:27:50;;;;;;;11.18;4.38;;;21.30;80.50;;;;;;5025487;28;20040;-69
2021/07/30 08:30:15;;;;;;;9.02;4.45;;;21.40;80.00;;;;;;5029120;28;20030;-68
2021/07/30 08:32:41;;;;;;;8.18;4.55;;;21.40;79.20;;;;;;5030347;28;20022;-69
2021/07/30 08:35:07;;;;;;;5.90;3.38;;;21.40;78.80;;;;;;5028327;28;20021;-68
2021/07/30 08:37:32;;;;;;;7.85;2.80;;;21.50;78.60;;;;;;5029423;28;20140;-69
2021/07/30 08:39:58;;;;;;;4.43;2.70;;;21.50;78.20;;;;;;5023129;28;20030;-68
2021/07/30 08:42:23;;;;;;;8.27;3.10;;;21.60;78.00;;;;;;5024584;28;20029;-69
2021/07/30 08:44:49;;;;;;;4.95;2.53;;;21.70;77.60;;;;;;5026664;28;20077;-69
2021/07/30 08:47:20;;;;;;;7.13;3.22;;;21.80;78.20;;;;;;5024303;28;20083;-68
2021/07/30 08:49:46;;;;;;;6.80;2.63;;;21.90;77.50;;;;;;5026759;28;20136;-69
2021/07/30 08:52:12;;;;;;;7.57;2.55;;;21.90;76.50;;;;;;5026574;28;20375;-68
2021/07/30 08:54:39;;;;;;;5.60;2.95;;;21.90;76.50;;;;;;5030115;28;20025;-69
2021/07/30 08:57:09;;;;;;;5.63;2.25;;;21.90;76.40;;;;;;5026088;28;20108;-68
2021/07/30 08:59:38;;;;;;;5.53;2.10;;;21.90;75.90;;;;;;5012054;28;20033;-69
2021/07/30 09:02:04;;;;;;;4.45;2.08;;;22.00;74.90;;;;;;5020187;28;20033;-69
2021/07/30 09:04:30;;;;;;;5.53;1.73;;;22.00;74.50;;;;;;5021247;28;20104;-69
2021/07/30 09:06:57;;;;;;;6.18;2.33;;;22.10;74.70;;;;;;5031707;28;20029;-69
2021/07/30 09:09:24;;;;;;;5.82;1.90;;;22.20;74.60;;;;;;5024313;28;20065;-69
2021/07/30 09:11:54;;;;;;;4.90;1.73;;;22.30;74.00;;;;;;5025643;28;20071;-69
2021/07/30 09:14:36;;;;;;;4.40;2.15;;;22.50;74.10;;;;;;5034386;28;20029;-70
2021/07/30 09:17:03;;;;;;;8.30;1.87;;;22.60;73.60;;;;;;5028692;28;20074;-70
2021/07/30 09:19:28;;;;;;;5.38;2.13;;;22.70;73.40;;;;;;5025833;28;20423;-70
2021/07/30 09:22:05;;;;;;;4.43;1.88;;;22.80;73.00;;;;;;5032249;28;20087;-70
2021/07/30 09:24:40;;;;;;;3.50;2.20;;;22.80;72.40;;;;;;5032102;28;20387;-68
2021/07/30 09:27:08;;;;;;;7.13;1.63;;;22.80;72.30;;;;;;5032411;28;20021;-68
2021/07/30 09:29:34;;;;;;;4.97;2.13;;;22.90;71.50;;;;;;5034260;28;20045;-68
2021/07/30 09:32:14;;;;;;;8.45;2.70;;;23.00;71.10;;;;;;5029871;28;20125;-68
2021/07/30 09:34:51;;;;;;;4.43;1.80;;;23.20;70.40;;;;;;5033798;28;20033;-68
2021/07/30 09:37:24;;;;;;;4.70;2.08;;;23.30;69.20;;;;;;5030252;28;20033;-70
2021/07/30 09:39:51;;;;;;;3.35;1.77;;;23.40;69.40;;;;;;5034002;28;20392;-69
2021/07/30 09:42:30;;;;;;;8.65;2.13;;;23.60;69.30;;;;;;5033680;28;20480;-69
2021/07/30 09:45:00;;;;;;;4.82;1.60;;;23.70;68.90;;;;;;5033446;28;20052;-69
2021/07/30 09:47:28;;;;;;;5.13;1.38;;;23.80;68.50;;;;;;5032992;28;20044;-69
2021/07/30 09:50:07;;;;;;;3.28;1.55;;;23.90;68.30;;;;;;5034109;28;20036;-69
2021/07/30 09:52:38;;;;;;;4.50;1.60;;;24.10;67.70;;;;;;5034473;28;20383;-68
2021/07/30 09:55:08;;;;;;;6.03;1.70;;;24.30;67.30;;;;;;5031713;28;20025;-68
2021/07/30 09:57:36;;;;;;;4.80;1.80;;;24.40;66.10;;;;;;5025248;28;20030;-68
2021/07/30 10:00:09;;;;;;;2.88;1.60;;;24.50;65.20;;;;;;5031877;28;20062;-69
2021/07/30 10:02:36;;;;;;;3.47;1.30;;;24.60;65.40;;;;;;5027823;28;20498;-70
2021/07/30 10:05:04;;;;;;;3.90;1.27;;;24.70;64.80;;;;;;5028278;28;20025;-68
2021/07/30 10:07:31;;;;;;;4.15;1.30;;;24.70;63.90;;;;;;5033084;28;20021;-67
2021/07/30 10:12:24;;;;;;;3.92;1.73;;;24.90;64.10;;;;;;5030890;28;20021;-68
2021/07/30 10:14:51;;;;;;;4.30;1.45;;;25.10;63.50;;;;;;5031193;28;20476;-67
2021/07/30 10:17:34;;;;;;;4.00;1.02;;;25.10;62.30;;;;;;5025112;28;20483;-67
2021/07/30 10:20:04;;;;;;;5.68;1.40;;;25.10;62.10;;;;;;5021564;28;20026;-66
2021/07/30 10:22:53;;;;;;;2.45;1.23;;;25.20;62.10;;;;;;5025815;28;20060;-68
2021/07/30 10:25:29;;;;;;;3.30;1.42;;;25.40;61.40;;;;;;5020155;28;20037;-68
2021/07/30 10:27:58;;;;;;;2.67;1.17;;;25.60;61.30;;;;;;5028472;28;20053;-69
2021/07/30 10:30:24;;;;;;;5.55;1.17;;;25.60;60.70;;;;;;5032572;28;20052;-69
2021/07/30 10:32:51;;;;;;;3.40;1.00;;;25.70;60.60;;;;;;5032395;28;20029;-68
2021/07/30 10:35:41;;;;;;;3.05;0.77;;;25.70;60.20;;;;;;5033266;28;20026;-68
2021/07/30 10:38:12;;;;;;;4.20;1.33;;;25.80;60.00;;;;;;5024248;28;20082;-69
2021/07/30 10:40:37;;;;;;;3.63;1.00;;;25.90;58.80;;;;;;5012482;28;20029;-68
2021/07/30 10:43:03;;;;;;;3.00;1.20;;;25.90;58.70;;;;;;5022246;28;20032;-68
2021/07/30 10:45:42;;;;;;;3.13;1.17;;;25.80;58.60;;;;;;5032531;28;20040;-68
2021/07/30 10:48:13;;;;;;;3.85;1.25;;;25.90;59.30;;;;;;5017277;28;20388;-68
2021/07/30 10:50:59;;;;;;;4.78;1.05;;;26.10;59.40;;;;;;5021655;28;20419;-68
2021/07/30 10:53:33;;;;;;;3.88;1.02;;;26.30;58.50;;;;;;5032550;28;20384;-69
2021/07/30 10:56:00;;;;;;;4.88;1.08;;;26.50;57.90;;;;;;5026863;28;20530;-68
2021/07/30 10:58:41;;;;;;;6.35;1.00;;;26.50;57.00;;;;;;5029603;28;20048;-68
2021/07/30 11:01:07;;;;;;;3.08;0.80;;;26.30;57.20;;;;;;5012391;28;20030;-69
2021/07/30 11:03:51;;;;;;;3.00;1.15;;;26.20;57.50;;;;;;5013285;28;20029;-68
2021/07/30 11:06:28;;;;;;;1.92;1.00;;;26.00;58.20;;;;;;5026142;28;20104;-67
2021/07/30 11:09:06;;;;;;;4.90;1.30;;;25.90;58.20;;;;;;5030312;28;20073;-68
2021/07/30 11:11:43;;;;;;;4.88;1.15;;;25.80;58.60;;;;;;5027019;28;20029;-67
2021/07/30 11:14:14;;;;;;;2.88;0.90;;;25.80;58.50;;;;;;5029350;28;20052;-67
2021/07/30 11:16:42;;;;;;;3.10;1.48;;;25.70;57.70;;;;;;5032056;28;20048;-67
2021/07/30 11:19:09;;;;;;;4.72;1.33;;;25.60;58.60;;;;;;5033133;28;20026;-66
2021/07/30 11:21:35;;;;;;;2.92;1.00;;;25.60;58.60;;;;;;5030550;28;20109;-68
2021/07/30 11:26:30;;;;;;;2.72;0.90;;;25.80;58.10;;;;;;5380271;22;20074;-88
2021/07/30 11:28:58;;;;;;;3.10;1.00;;;25.80;58.50;;;;;;4969192;28;20022;-89
2021/07/30 11:31:24;;;;;;;2.38;0.95;;;25.90;58.20;;;;;;4974846;28;20406;-87
2021/07/30 11:33:50;;;;;;;2.67;1.10;;;25.90;58.00;;;;;;4957444;28;20031;-87
2021/07/30 11:36:16;;;;;;;2.45;0.98;;;26.00;58.00;;;;;;4971448;28;20030;-88
2021/07/30 11:38:52;;;;;;;3.58;1.15;;;26.20;57.40;;;;;;4975122;28;20081;-88
2021/07/30 11:41:18;;;;;;;3.20;0.95;;;26.20;57.50;;;;;;4975225;28;20034;-88
2021/07/30 11:44:00;;;;;;;4.75;1.08;;;26.30;57.60;;;;;;4974734;28;20045;-86
2021/07/30 11:46:26;;;;;;;3.08;1.13;;;26.30;57.20;;;;;;4988329;28;20070;-87
2021/07/30 11:48:52;;;;;;;5.90;1.10;;;26.30;57.20;;;;;;4976924;28;20084;-88
2021/07/30 11:51:19;;;;;;;2.97;1.20;;;26.30;57.00;;;;;;4973288;28;20027;-87
2021/07/30 11:53:46;;;;;;;2.50;1.17;;;26.20;56.40;;;;;;4972708;28;20023;-87
2021/07/30 11:56:13;;;;;;;1.92;0.95;;;26.10;56.50;;;;;;4975544;28;20031;-87
2021/07/30 11:58:55;;;;;;;3.60;1.60;;;26.10;56.50;;;;;;4974688;28;20027;-88
2021/07/30 12:01:21;;;;;;;2.70;1.00;;;26.10;56.70;;;;;;4974075;28;20042;-87
2021/07/30 12:04:04;;;;;;;4.07;1.40;;;26.00;56.90;;;;;;4974103;28;20026;-86
2021/07/30 12:06:30;;;;;;;2.97;1.00;;;26.10;57.00;;;;;;4974292;28;20502;-87
2021/07/30 12:08:57;;;;;;;3.67;1.23;;;26.00;56.60;;;;;;4973621;28;20034;-87
2021/07/30 12:11:25;;;;;;;2.58;1.20;;;25.90;56.90;;;;;;4970339;28;20027;-87
2021/07/30 12:13:51;;;;;;;3.75;1.35;;;25.90;57.00;;;;;;4970293;28;20031;-87
2021/07/30 12:16:17;;;;;;;5.38;1.80;;;25.80;57.40;;;;;;4973373;28;20054;-87
2021/07/30 12:18:43;;;;;;;4.93;1.00;;;25.80;57.50;;;;;;4973762;28;20058;-87
2021/07/30 12:21:08;;;;;;;2.10;1.10;;;25.80;57.00;;;;;;4953892;28;20554;-88
2021/07/30 12:23:34;;;;;;;2.60;1.00;;;25.80;56.90;;;;;;4955621;28;20071;-88
2021/07/30 12:25:59;;;;;;;3.13;1.08;;;25.70;57.60;;;;;;4971241;28;20043;-87
2021/07/30 12:28:37;;;;;;;1.70;1.00;;;25.50;57.20;;;;;;4956889;28;20124;-87
2021/07/30 12:31:14;;;;;;;1.90;1.10;;;25.30;57.60;;;;;;4954245;28;20463;-87
2021/07/30 12:33:39;;;;;;;5.25;1.35;;;25.10;57.90;;;;;;4954566;28;20043;-87
2021/07/30 12:36:14;;;;;;;2.65;1.52;;;24.90;58.90;;;;;;4966412;28;20042;-87
2021/07/30 12:38:57;;;;;;;2.85;1.30;;;24.90;60.20;;;;;;4960760;28;20483;-87
2021/07/30 12:41:25;;;;;;;2.63;1.20;;;24.90;60.50;;;;;;4952922;28;20039;-87
2021/07/30 12:43:52;;;;;;;2.20;1.23;;;24.90;60.90;;;;;;4953834;29;20043;-87
2021/07/30 12:46:38;;;;;;;3.20;1.17;;;25.00;60.70;;;;;;4954005;29;20033;-86
2021/07/30 12:49:08;;;;;;;5.15;1.38;;;25.10;60.80;;;;;;4972320;28;20081;-88